Time;durP1;ratioP1;P1;durP2;ratioP2;P2;SDS_P1;SDS_P2;PMS_P1;PMS_P2;Temp;Humidity;BMP_temperature;BMP_pressure;BME280_temperature;BME280_humidity;BME280_pressure;Samples;Min_cycle;Max_cycle;Signal;HPM_P1;HPM_P2
2023/10/17 00:00:59;;;;;;;1.98;1.88;;;9.10;99.90;;;;;;5065125;28;22818;-74
2023/10/17 00:03:26;;;;;;;2.00;1.90;;;9.10;99.90;;;;;;5075628;28;20194;-73
2023/10/17 00:05:56;;;;;;;1.92;1.83;;;9.10;99.90;;;;;;5065981;28;20202;-78
2023/10/17 00:08:23;;;;;;;1.90;1.80;;;9.00;99.90;;;;;;5065219;28;20226;-74
2023/10/17 00:10:50;;;;;;;1.75;1.65;;;9.00;99.90;;;;;;5064168;28;20222;-75
2023/10/17 00:13:38;;;;;;;2.15;2.05;;;9.00;99.90;;;;;;5060972;28;20205;-75
2023/10/17 00:16:09;;;;;;;1.90;1.80;;;8.90;99.90;;;;;;5062929;28;20717;-74
2023/10/17 00:18:36;;;;;;;1.90;1.80;;;8.90;99.90;;;;;;5065546;28;20210;-76
2023/10/17 00:21:10;;;;;;;2.00;1.90;;;8.90;99.90;;;;;;5064859;28;20210;-77
2023/10/17 00:23:39;;;;;;;2.05;1.95;;;8.90;99.90;;;;;;5064947;28;20226;-75
2023/10/17 00:26:08;;;;;;;2.00;1.90;;;8.80;99.90;;;;;;5081101;28;20206;-74
2023/10/17 00:28:38;;;;;;;2.00;1.90;;;8.80;99.90;;;;;;5080181;28;20643;-72
2023/10/17 00:31:06;;;;;;;1.63;1.60;;;8.70;99.90;;;;;;5064178;28;20313;-74
2023/10/17 00:33:37;;;;;;;2.08;1.95;;;8.70;99.90;;;;;;5061881;28;20210;-73
2023/10/17 00:36:06;;;;;;;1.80;1.70;;;8.70;99.90;;;;;;5066097;28;20194;-73
2023/10/17 00:38:37;;;;;;;2.28;2.17;;;8.70;99.90;;;;;;5063904;28;20814;-77
2023/10/17 00:41:05;;;;;;;1.80;1.70;;;8.60;99.90;;;;;;5063553;28;20823;-74
2023/10/17 00:43:35;;;;;;;1.83;1.73;;;8.60;99.90;;;;;;5069194;28;20206;-75
2023/10/17 00:46:02;;;;;;;1.90;1.80;;;8.60;99.90;;;;;;5063988;28;20765;-74
2023/10/17 00:48:34;;;;;;;1.80;1.70;;;8.60;99.90;;;;;;5068074;28;20225;-74
2023/10/17 00:51:07;;;;;;;2.35;2.15;;;8.60;99.90;;;;;;5068106;28;20222;-75
2023/10/17 00:53:39;;;;;;;2.15;2.00;;;8.60;99.90;;;;;;5067597;28;20205;-75
2023/10/17 00:56:07;;;;;;;1.92;1.83;;;8.60;99.90;;;;;;5084888;28;20265;-74
2023/10/17 00:58:35;;;;;;;1.92;1.83;;;8.60;99.90;;;;;;5078099;28;20689;-74
2023/10/17 01:01:20;;;;;;;;;;;;;;;;;;;;;
2023/10/17 01:03:52;;;;;;;2.10;2.00;;;8.60;99.90;;;;;;5062559;28;20206;-75
2023/10/17 01:06:36;;;;;;;2.00;1.90;;;8.50;99.90;;;;;;5063534;28;20206;-72
2023/10/17 01:09:17;;;;;;;2.20;2.10;;;8.50;99.90;;;;;;5069960;28;20216;-75
2023/10/17 01:11:45;;;;;;;1.80;1.70;;;8.50;99.90;;;;;;5059590;28;20375;-75
2023/10/17 01:14:18;;;;;;;1.90;1.80;;;8.50;99.90;;;;;;5064056;28;20208;-74
2023/10/17 01:16:46;;;;;;;2.05;1.95;;;8.50;99.90;;;;;;5065121;28;20209;-74
2023/10/17 01:19:15;;;;;;;2.20;2.10;;;8.40;99.90;;;;;;5066237;28;20225;-75
2023/10/17 01:21:42;;;;;;;2.00;1.90;;;8.40;99.90;;;;;;5064351;28;20328;-75
2023/10/17 01:24:11;;;;;;;2.03;1.92;;;8.40;99.90;;;;;;5066040;28;20198;-73
2023/10/17 01:26:39;;;;;;;2.20;2.10;;;8.40;99.90;;;;;;5071687;28;20194;-75
2023/10/17 01:29:10;;;;;;;2.13;2.03;;;8.40;99.90;;;;;;5067243;28;20229;-74
2023/10/17 01:31:42;;;;;;;1.88;1.77;;;8.30;99.90;;;;;;5064113;28;20257;-73
2023/10/17 01:34:10;;;;;;;2.03;1.92;;;8.30;99.90;;;;;;5063723;28;20287;-76
2023/10/17 01:36:37;;;;;;;2.20;2.00;;;8.20;99.90;;;;;;5070848;28;20206;-73
2023/10/17 01:39:06;;;;;;;1.95;1.85;;;8.20;99.90;;;;;;5065477;28;20747;-77
2023/10/17 01:41:35;;;;;;;2.28;2.08;;;8.20;99.90;;;;;;5065912;28;20245;-74
2023/10/17 01:44:02;;;;;;;2.08;1.98;;;8.20;99.90;;;;;;5066744;28;22560;-76
2023/10/17 01:46:29;;;;;;;2.10;1.95;;;8.20;99.90;;;;;;5064050;28;20729;-72
2023/10/17 01:49:00;;;;;;;2.03;1.92;;;8.20;99.90;;;;;;5058582;28;21196;-75
2023/10/17 01:51:28;;;;;;;2.10;2.00;;;8.20;99.90;;;;;;5061251;28;20224;-73
2023/10/17 01:53:55;;;;;;;2.50;2.40;;;8.10;99.90;;;;;;5067593;28;20197;-74
2023/10/17 01:56:26;;;;;;;1.95;1.85;;;8.10;99.90;;;;;;5064893;28;20228;-75
2023/10/17 01:58:59;;;;;;;1.90;1.80;;;8.10;99.90;;;;;;5062892;28;20210;-76
2023/10/17 02:01:29;;;;;;;2.28;2.08;;;8.10;99.90;;;;;;5065303;28;20243;-73
2023/10/17 02:04:02;;;;;;;1.90;1.80;;;8.10;99.90;;;;;;5065936;28;20198;-73
2023/10/17 02:06:30;;;;;;;2.20;2.10;;;8.10;99.90;;;;;;5064846;28;20200;-74
2023/10/17 02:08:59;;;;;;;2.30;2.20;;;8.10;99.90;;;;;;5063015;28;20269;-75
2023/10/17 02:11:27;;;;;;;2.25;2.15;;;8.10;99.90;;;;;;5066136;28;20214;-74
2023/10/17 02:13:57;;;;;;;2.55;2.25;;;8.10;99.90;;;;;;5061571;28;20224;-73
2023/10/17 02:16:24;;;;;;;2.53;2.33;;;8.10;99.90;;;;;;5065204;28;20195;-75
2023/10/17 02:18:51;;;;;;;2.15;2.05;;;8.00;99.90;;;;;;5066229;28;20210;-79
2023/10/17 02:21:21;;;;;;;1.85;1.75;;;8.00;99.90;;;;;;5073782;28;20233;-74
2023/10/17 02:23:51;;;;;;;1.98;1.88;;;8.00;99.90;;;;;;5077941;28;20226;-72
2023/10/17 02:26:21;;;;;;;2.08;1.98;;;7.90;99.90;;;;;;5070004;22;20223;-69
2023/10/17 02:28:50;;;;;;;2.10;2.00;;;7.80;99.90;;;;;;5023047;28;20340;-67
2023/10/17 02:31:27;;;;;;;1.85;1.75;;;7.80;99.90;;;;;;5022484;28;20802;-69
2023/10/17 02:33:55;;;;;;;2.28;2.17;;;7.70;99.90;;;;;;5021259;28;20569;-69
2023/10/17 02:36:22;;;;;;;2.30;2.20;;;7.80;99.90;;;;;;5021620;28;20255;-67
2023/10/17 02:38:50;;;;;;;2.25;2.15;;;7.70;99.90;;;;;;5021996;28;20259;-68
2023/10/17 02:41:19;;;;;;;2.15;2.05;;;7.70;99.90;;;;;;5019754;28;20294;-68
2023/10/17 02:43:47;;;;;;;2.00;1.90;;;7.70;99.90;;;;;;5025344;28;20204;-67
2023/10/17 02:46:14;;;;;;;2.35;2.15;;;7.70;99.90;;;;;;5022677;28;20770;-69
2023/10/17 02:48:45;;;;;;;2.38;2.17;;;7.70;99.90;;;;;;5029645;28;20274;-69
2023/10/17 02:53:58;;;;;;;2.30;2.20;;;7.60;99.90;;;;;;5023303;28;20210;-68
2023/10/17 02:56:26;;;;;;;2.08;1.98;;;7.60;99.90;;;;;;5027299;28;20636;-69
2023/10/17 02:59:04;;;;;;;2.38;2.22;;;7.50;99.90;;;;;;5020537;28;20242;-69
2023/10/17 03:01:31;;;;;;;2.20;2.10;;;7.50;99.90;;;;;;5023670;28;20259;-69
2023/10/17 03:04:01;;;;;;;1.95;1.85;;;7.50;99.90;;;;;;5026001;28;20204;-67
2023/10/17 03:06:28;;;;;;;2.10;2.00;;;7.50;99.90;;;;;;5025240;28;20288;-68
2023/10/17 03:09:14;;;;;;;2.33;2.13;;;7.50;99.90;;;;;;5023861;28;20258;-66
2023/10/17 03:11:50;;;;;;;2.13;2.03;;;7.50;99.90;;;;;;5031194;28;20526;-68
2023/10/17 03:14:22;;;;;;;2.35;2.15;;;7.50;99.90;;;;;;5022284;28;20203;-69
2023/10/17 03:16:52;;;;;;;2.28;1.75;;;7.50;99.90;;;;;;5026493;28;20209;-69
2023/10/17 03:19:25;;;;;;;2.13;2.03;;;7.50;99.90;;;;;;5024050;28;20307;-69
2023/10/17 03:21:54;;;;;;;2.88;2.67;;;7.50;99.90;;;;;;5025063;28;20210;-68
2023/10/17 03:24:28;;;;;;;2.33;2.22;;;7.50;99.90;;;;;;5023207;28;20201;-68
2023/10/17 03:27:06;;;;;;;2.20;2.10;;;7.50;99.90;;;;;;5027621;28;20297;-68
2023/10/17 03:29:35;;;;;;;2.10;2.00;;;7.50;99.90;;;;;;5025939;28;20316;-68
2023/10/17 03:32:04;;;;;;;2.33;2.13;;;7.50;99.90;;;;;;5025139;28;20888;-67
2023/10/17 03:34:37;;;;;;;1.90;1.80;;;7.40;99.90;;;;;;5017667;28;20566;-68
2023/10/17 03:39:51;;;;;;;2.20;2.10;;;7.40;99.90;;;;;;5030833;28;20233;-67
2023/10/17 03:42:41;;;;;;;2.30;2.20;;;7.40;99.90;;;;;;5027121;28;20219;-66
2023/10/17 03:45:13;;;;;;;2.17;2.08;;;7.40;99.90;;;;;;5025143;28;20207;-68
2023/10/17 03:47:40;;;;;;;2.67;2.47;;;7.40;99.90;;;;;;5029019;28;20215;-69
2023/10/17 03:50:09;;;;;;;2.05;1.90;;;7.40;99.90;;;;;;5027389;28;20902;-69
2023/10/17 03:52:37;;;;;;;2.10;2.00;;;7.40;99.90;;;;;;5024864;28;20245;-68
2023/10/17 03:55:10;;;;;;;2.50;2.40;;;7.30;99.90;;;;;;5024719;28;20219;-68
2023/10/17 03:57:39;;;;;;;2.58;2.38;;;7.30;99.90;;;;;;5026777;28;20219;-69
2023/10/17 04:00:18;;;;;;;2.45;2.30;;;7.30;99.90;;;;;;5025870;28;20205;-69
2023/10/17 04:02:49;;;;;;;2.15;1.98;;;7.20;99.90;;;;;;5021559;28;20700;-69
2023/10/17 04:05:18;;;;;;;2.55;2.35;;;7.20;99.90;;;;;;5027131;28;20235;-69
2023/10/17 04:07:51;;;;;;;2.10;2.00;;;7.20;99.90;;;;;;5024702;28;20293;-69
2023/10/17 04:10:20;;;;;;;2.35;2.10;;;7.20;99.90;;;;;;5026812;28;20206;-68
2023/10/17 04:13:06;;;;;;;2.60;2.25;;;7.20;99.90;;;;;;5020505;28;20684;-67
2023/10/17 04:15:33;;;;;;;2.17;2.08;;;7.10;99.90;;;;;;5026479;28;20199;-69
2023/10/17 04:18:02;;;;;;;2.28;2.17;;;7.10;99.90;;;;;;5023724;28;20220;-69
2023/10/17 04:20:36;;;;;;;2.72;2.53;;;7.10;99.90;;;;;;5024930;28;20700;-68
2023/10/17 04:23:05;;;;;;;2.67;2.45;;;7.10;99.90;;;;;;5029222;28;20199;-69
2023/10/17 04:25:37;;;;;;;2.40;2.20;;;7.00;99.90;;;;;;5027255;28;20200;-68
2023/10/17 04:28:05;;;;;;;2.30;2.13;;;7.10;99.90;;;;;;5023273;28;20215;-69
2023/10/17 04:30:35;;;;;;;2.40;2.20;;;7.00;99.90;;;;;;5028338;28;20254;-69
2023/10/17 04:33:09;;;;;;;2.38;2.28;;;7.00;99.90;;;;;;5022590;28;20252;-69
2023/10/17 04:35:46;;;;;;;2.20;2.00;;;7.00;99.90;;;;;;5027265;28;20207;-68
2023/10/17 04:38:19;;;;;;;2.83;2.63;;;7.00;99.90;;;;;;5021475;28;20222;-67
2023/10/17 04:40:54;;;;;;;2.40;2.30;;;7.00;99.90;;;;;;5023217;28;20677;-69
2023/10/17 04:46:11;;;;;;;2.25;2.15;;;7.00;99.90;;;;;;5027157;28;20226;-69
2023/10/17 04:48:40;;;;;;;2.45;2.35;;;7.00;99.90;;;;;;5026432;28;20220;-69
2023/10/17 04:51:25;;;;;;;2.30;2.20;;;7.00;99.90;;;;;;5023209;28;20206;-68
2023/10/17 04:53:51;;;;;;;2.28;2.17;;;7.00;99.90;;;;;;5031083;28;20272;-68
2023/10/17 04:56:22;;;;;;;2.30;2.20;;;7.00;99.90;;;;;;5021142;28;20199;-68
2023/10/17 04:58:53;;;;;;;2.30;2.20;;;7.00;99.90;;;;;;5022669;28;20227;-68
2023/10/17 05:01:39;;;;;;;2.03;1.92;;;7.00;99.90;;;;;;5022920;28;20235;-69
2023/10/17 05:04:18;;;;;;;2.47;2.35;;;7.00;99.90;;;;;;5026595;28;20272;-69
2023/10/17 06:18:26;;;;;;;2.42;2.28;;;6.90;99.90;;;;;;5018614;28;20221;-69
2023/10/17 06:21:07;;;;;;;2.70;2.60;;;6.90;99.90;;;;;;5020941;28;20298;-67
2023/10/17 06:32:07;;;;;;;2.70;2.50;;;7.10;99.90;;;;;;5028763;28;20209;-69
2023/10/17 06:34:33;;;;;;;2.33;2.22;;;7.20;99.90;;;;;;5024600;28;20214;-67
2023/10/17 06:37:02;;;;;;;2.90;2.70;;;7.20;99.90;;;;;;5032211;28;20282;-69
2023/10/17 06:39:36;;;;;;;2.80;2.60;;;7.20;99.90;;;;;;5027754;28;20211;-69
2023/10/17 06:42:14;;;;;;;2.67;2.58;;;7.20;99.90;;;;;;5023680;28;20774;-69
2023/10/17 06:44:52;;;;;;;2.30;2.20;;;7.20;99.90;;;;;;5024220;28;20203;-67
2023/10/17 06:47:22;;;;;;;2.72;2.53;;;7.20;99.90;;;;;;5021265;28;20219;-67
2023/10/17 06:52:40;;;;;;;2.88;2.65;;;7.20;99.90;;;;;;5017758;28;20230;-67
2023/10/17 06:55:08;;;;;;;2.90;2.70;;;7.90;99.90;;;;;;5020436;28;20299;-69
2023/10/17 06:57:36;;;;;;;2.88;2.67;;;9.10;99.90;;;;;;5025849;28;20219;-67
2023/10/17 07:00:16;;;;;;;2.92;2.60;;;10.00;99.90;;;;;;5022224;28;20283;-67
2023/10/17 07:02:48;;;;;;;3.30;3.00;;;10.90;99.90;;;;;;5025461;28;20781;-69
2023/10/17 07:05:21;;;;;;;2.83;2.63;;;11.80;99.90;;;;;;5020712;28;20199;-68
2023/10/17 07:07:52;;;;;;;2.50;2.30;;;12.50;99.90;;;;;;5027318;28;20219;-68
2023/10/17 07:10:37;;;;;;;2.78;2.58;;;13.10;99.90;;;;;;5021132;28;20211;-67
2023/10/17 07:13:54;;;;;;;2.70;2.50;;;13.40;99.90;;;;;;5026776;28;20839;-68
2023/10/17 07:16:27;;;;;;;2.60;2.40;;;13.70;99.90;;;;;;5003348;28;20204;-69
2023/10/17 07:18:57;;;;;;;2.45;2.25;;;14.10;99.90;;;;;;5027872;28;20277;-69
2023/10/17 07:21:24;;;;;;;2.47;2.28;;;14.30;99.90;;;;;;5020147;28;20285;-68
2023/10/17 07:23:54;;;;;;;5.07;2.92;;;14.30;99.90;;;;;;5027710;28;20206;-69
2023/10/17 07:26:38;;;;;;;2.40;2.20;;;14.50;99.90;;;;;;5026682;28;20206;-69
2023/10/17 07:29:07;;;;;;;2.75;2.55;;;14.70;99.90;;;;;;5019232;28;20323;-69
2023/10/17 07:31:36;;;;;;;2.65;2.33;;;15.10;99.90;;;;;;5019326;28;20200;-69
2023/10/17 07:36:47;;;;;;;2.42;2.22;;;15.70;99.90;;;;;;5024739;28;20198;-70
2023/10/17 07:39:24;;;;;;;2.20;2.10;;;15.90;99.90;;;;;;5025103;28;20466;-69
2023/10/17 07:41:54;;;;;;;2.97;2.67;;;16.10;99.90;;;;;;5027136;28;20734;-69
2023/10/17 07:44:22;;;;;;;2.47;2.28;;;15.80;99.90;;;;;;5020243;28;20210;-68
2023/10/17 07:47:03;;;;;;;2.97;2.50;;;15.80;99.90;;;;;;5024376;28;20211;-70
2023/10/17 07:49:30;;;;;;;2.30;2.10;;;15.60;99.90;;;;;;5023833;28;20197;-69
2023/10/17 07:51:58;;;;;;;2.55;2.08;;;15.80;99.90;;;;;;5025380;28;20207;-70
2023/10/17 07:54:28;;;;;;;2.83;2.30;;;16.00;99.90;;;;;;5018734;28;20291;-70
2023/10/17 07:56:58;;;;;;;3.17;2.10;;;16.20;99.90;;;;;;5020561;28;20206;-70
2023/10/17 07:59:32;;;;;;;3.85;2.45;;;16.50;99.90;;;;;;5019210;28;20235;-67
2023/10/17 08:02:13;;;;;;;2.40;2.20;;;16.60;99.90;;;;;;5023634;28;20198;-68
2023/10/17 08:04:43;;;;;;;4.70;2.47;;;16.40;99.90;;;;;;5017499;28;20192;-69
2023/10/17 08:07:13;;;;;;;1.90;1.80;;;16.20;99.90;;;;;;5020008;28;20599;-69
2023/10/17 08:09:50;;;;;;;2.13;1.92;;;16.30;99.90;;;;;;5025733;28;20705;-69
2023/10/17 08:12:21;;;;;;;2.70;2.38;;;16.50;99.90;;;;;;5022546;28;20337;-69
2023/10/17 08:14:57;;;;;;;2.55;2.03;;;16.70;99.90;;;;;;5022849;28;21415;-69
2023/10/17 08:17:28;;;;;;;2.55;2.35;;;17.00;99.90;;;;;;5021876;28;20246;-70
2023/10/17 08:20:10;;;;;;;3.00;2.25;;;17.40;99.90;;;;;;5022557;28;20216;-69
2023/10/17 08:22:54;;;;;;;2.95;2.00;;;17.50;99.90;;;;;;5022816;28;20210;-70
2023/10/17 08:25:30;;;;;;;2.47;2.13;;;17.40;99.90;;;;;;5014689;28;20199;-70
2023/10/17 08:27:56;;;;;;;2.20;2.08;;;17.10;99.90;;;;;;5021963;28;20222;-70
2023/10/17 08:30:34;;;;;;;3.10;2.17;;;17.00;99.90;;;;;;5015399;28;20203;-70
2023/10/17 08:33:15;;;;;;;2.78;1.80;;;16.60;99.90;;;;;;5020870;28;20325;-70
2023/10/17 08:35:48;;;;;;;3.15;2.35;;;16.40;99.90;;;;;;5023728;28;20286;-70
2023/10/17 08:38:17;;;;;;;2.40;2.17;;;16.10;99.90;;;;;;5020272;28;20239;-70
2023/10/17 08:40:43;;;;;;;2.60;2.40;;;16.00;99.90;;;;;;5026107;28;20219;-70
2023/10/17 08:43:14;;;;;;;2.92;2.20;;;16.10;99.90;;;;;;5026349;28;20286;-70
2023/10/17 08:45:43;;;;;;;2.35;2.20;;;16.30;99.90;;;;;;5018615;28;20208;-68
2023/10/17 08:48:12;;;;;;;2.10;1.90;;;16.30;99.90;;;;;;5021127;28;20227;-69
2023/10/17 08:50:40;;;;;;;2.17;1.98;;;16.70;99.90;;;;;;5022072;28;20196;-70
2023/10/17 08:53:13;;;;;;;2.15;1.95;;;17.10;99.90;;;;;;5025146;28;20213;-70
2023/10/17 08:55:41;;;;;;;2.22;2.05;;;17.40;99.90;;;;;;5023189;28;20226;-70
2023/10/17 08:58:09;;;;;;;2.35;2.15;;;17.40;99.90;;;;;;5017535;28;20230;-70
2023/10/17 09:00:55;;;;;;;2.30;2.10;;;17.30;99.90;;;;;;5024340;28;20213;-70
2023/10/17 09:03:28;;;;;;;3.05;2.10;;;17.50;99.90;;;;;;5021863;28;20270;-70
2023/10/17 09:06:06;;;;;;;5.40;2.47;;;17.50;99.90;;;;;;5024804;28;20317;-70
2023/10/17 09:08:51;;;;;;;2.83;2.20;;;17.60;99.90;;;;;;5020665;28;20306;-71
2023/10/17 09:11:29;;;;;;;4.13;2.25;;;17.60;99.90;;;;;;5027538;28;20206;-68
2023/10/17 09:16:49;;;;;;;2.30;2.10;;;17.70;99.90;;;;;;5020686;28;20227;-70
2023/10/17 09:19:20;;;;;;;2.22;2.03;;;17.90;99.90;;;;;;5024912;28;20211;-69
2023/10/17 09:21:49;;;;;;;2.22;2.03;;;18.30;99.90;;;;;;5017788;28;20285;-70
2023/10/17 09:24:36;;;;;;;3.10;2.10;;;18.20;99.90;;;;;;5024497;28;20690;-69
2023/10/17 09:27:10;;;;;;;2.38;2.17;;;18.30;99.90;;;;;;5016301;28;20223;-70
2023/10/17 09:29:44;;;;;;;3.35;2.60;;;18.40;99.90;;;;;;5026567;28;20291;-69
2023/10/17 09:32:11;;;;;;;3.92;2.47;;;18.30;99.90;;;;;;5022519;28;20850;-70
2023/10/17 09:34:42;;;;;;;2.42;2.22;;;18.00;99.90;;;;;;5015094;28;20204;-68
2023/10/17 09:37:13;;;;;;;2.60;2.20;;;18.00;99.90;;;;;;5016248;28;20764;-69
2023/10/17 09:39:47;;;;;;;2.50;2.30;;;18.20;99.90;;;;;;5019359;28;20929;-70
2023/10/17 09:42:15;;;;;;;3.15;2.63;;;18.50;99.90;;;;;;5022336;28;20302;-70
2023/10/17 09:44:42;;;;;;;3.33;2.05;;;18.50;99.90;;;;;;5021290;28;20196;-70
2023/10/17 09:47:10;;;;;;;3.25;2.42;;;18.60;99.90;;;;;;5017783;28;20219;-70
2023/10/17 09:49:44;;;;;;;3.03;2.72;;;18.60;99.90;;;;;;5022001;28;20210;-70
2023/10/17 09:52:14;;;;;;;3.33;2.53;;;18.40;99.90;;;;;;5016344;28;20198;-70
2023/10/17 09:54:43;;;;;;;2.40;2.17;;;18.40;99.90;;;;;;5015390;28;20318;-70
2023/10/17 09:57:14;;;;;;;2.70;2.30;;;18.30;99.90;;;;;;5020363;28;20220;-70
2023/10/17 09:59:54;;;;;;;2.30;2.10;;;18.20;99.90;;;;;;5019895;28;20298;-70
2023/10/17 10:02:23;;;;;;;2.63;2.05;;;18.20;99.90;;;;;;5017132;28;20199;-69
2023/10/17 10:04:52;;;;;;;3.38;2.25;;;18.20;99.90;;;;;;5019231;28;20216;-70
2023/10/17 10:07:20;;;;;;;3.25;2.10;;;18.00;99.90;;;;;;5016598;28;20277;-70
2023/10/17 10:09:47;;;;;;;2.47;2.00;;;18.00;99.90;;;;;;5016971;28;20204;-70
2023/10/17 10:12:14;;;;;;;2.90;2.03;;;18.10;99.90;;;;;;5018480;28;20291;-69
2023/10/17 10:14:43;;;;;;;2.63;2.33;;;18.30;99.90;;;;;;5020306;28;20196;-69
2023/10/17 10:17:14;;;;;;;3.00;2.28;;;18.50;99.90;;;;;;5019780;28;20314;-70
2023/10/17 10:20:13;;;;;;;2.53;2.20;;;18.30;99.90;;;;;;5018011;28;20226;-70
2023/10/17 10:22:56;;;;;;;2.53;2.20;;;18.30;99.90;;;;;;5016681;28;20234;-69
2023/10/17 10:25:23;;;;;;;3.38;1.90;;;18.30;99.90;;;;;;5022262;28;20280;-69
2023/10/17 10:28:36;;;;;;;2.88;2.05;;;18.10;99.90;;;;;;5020469;28;20218;-69
2023/10/17 10:31:38;;;;;;;2.15;2.03;;;18.20;99.90;;;;;;5007413;28;20261;-70
2023/10/17 10:34:06;;;;;;;4.43;2.30;;;18.30;99.90;;;;;;5018935;28;20217;-70
2023/10/17 10:36:36;;;;;;;2.30;2.10;;;18.20;99.90;;;;;;5021282;28;20287;-68
2023/10/17 10:39:13;;;;;;;3.15;2.10;;;17.80;99.90;;;;;;5026807;28;20262;-70
2023/10/17 10:41:55;;;;;;;2.40;2.20;;;17.60;99.90;;;;;;5017263;28;20770;-70
2023/10/17 10:44:22;;;;;;;2.38;2.05;;;17.50;99.90;;;;;;5021957;28;20208;-70
2023/10/17 10:46:49;;;;;;;2.08;1.98;;;17.60;99.90;;;;;;5022582;28;20239;-69
2023/10/17 10:49:16;;;;;;;2.60;2.05;;;17.70;99.90;;;;;;5022157;28;20196;-69
2023/10/17 10:51:48;;;;;;;2.33;2.10;;;18.10;99.90;;;;;;5021818;28;20295;-70
2023/10/17 10:54:17;;;;;;;2.42;2.10;;;18.40;99.90;;;;;;5016492;28;20203;-68
2023/10/17 10:56:51;;;;;;;3.42;2.50;;;18.30;99.90;;;;;;5016727;28;20294;-70
2023/10/17 10:59:21;;;;;;;2.72;2.38;;;18.10;99.90;;;;;;5015929;28;20299;-70
2023/10/17 11:01:49;;;;;;;4.07;2.03;;;17.70;99.90;;;;;;5018039;28;20254;-68
2023/10/17 11:04:16;;;;;;;3.17;2.17;;;17.60;99.90;;;;;;5013986;28;20222;-69
2023/10/17 11:06:44;;;;;;;3.83;2.22;;;18.00;99.90;;;;;;5020076;28;20204;-69
2023/10/17 11:09:17;;;;;;;5.38;2.42;;;18.20;99.90;;;;;;5023779;28;20244;-69
2023/10/17 11:11:44;;;;;;;2.30;2.10;;;18.50;99.90;;;;;;5030495;28;20318;-70
2023/10/17 11:14:15;;;;;;;2.20;1.98;;;18.20;99.90;;;;;;5021921;28;20288;-70
2023/10/17 11:16:42;;;;;;;2.17;1.83;;;18.10;99.90;;;;;;5022639;28;20200;-70
2023/10/17 11:19:19;;;;;;;2.10;1.90;;;18.10;99.90;;;;;;5025237;28;20910;-70
2023/10/17 11:21:51;;;;;;;2.95;1.90;;;18.10;99.90;;;;;;5023004;28;20276;-68
2023/10/17 11:24:23;;;;;;;2.65;1.70;;;18.10;99.90;;;;;;5021766;28;20207;-70
2023/10/17 11:26:51;;;;;;;5.72;2.22;;;17.60;99.90;;;;;;5029316;28;20294;-70
2023/10/17 11:29:26;;;;;;;3.90;1.73;;;17.40;99.90;;;;;;5019805;28;20212;-70
2023/10/17 11:31:59;;;;;;;2.50;1.73;;;17.60;99.90;;;;;;5025009;28;20198;-70
2023/10/17 11:34:32;;;;;;;1.73;1.63;;;17.40;99.90;;;;;;5025258;28;20200;-70
2023/10/17 11:37:11;;;;;;;1.75;1.65;;;17.20;99.90;;;;;;5020548;28;20203;-69
2023/10/17 11:39:42;;;;;;;1.92;1.83;;;17.20;99.90;;;;;;5021066;28;20828;-70
2023/10/17 11:42:10;;;;;;;2.30;2.00;;;17.40;99.90;;;;;;5024492;28;20200;-68
2023/10/17 11:44:46;;;;;;;1.75;1.65;;;17.50;99.90;;;;;;5020798;28;20484;-70
2023/10/17 11:47:23;;;;;;;1.75;1.63;;;17.60;99.90;;;;;;5022735;28;20253;-71
2023/10/17 11:49:52;;;;;;;2.15;1.95;;;17.80;99.90;;;;;;5025136;28;20257;-70
2023/10/17 11:52:20;;;;;;;1.92;1.70;;;17.60;99.90;;;;;;5020423;28;20256;-69
2023/10/17 11:55:00;;;;;;;2.15;1.83;;;17.70;99.90;;;;;;5025202;28;20200;-70
2023/10/17 11:57:28;;;;;;;2.10;1.90;;;17.90;99.90;;;;;;5023656;28;20297;-69
2023/10/17 12:00:00;;;;;;;2.45;2.00;;;18.00;99.90;;;;;;5024769;28;20247;-70
2023/10/17 12:02:29;;;;;;;1.83;1.70;;;18.00;99.90;;;;;;5023263;28;20200;-70
2023/10/17 12:04:56;;;;;;;2.10;1.77;;;18.20;99.90;;;;;;5025303;28;20199;-70
2023/10/17 12:07:23;;;;;;;1.70;1.60;;;18.40;99.90;;;;;;5021478;28;20335;-69
2023/10/17 12:09:53;;;;;;;2.80;1.70;;;18.50;99.90;;;;;;5025377;28;20199;-70
2023/10/17 12:12:22;;;;;;;2.05;1.60;;;18.40;99.90;;;;;;5023223;28;20273;-70
2023/10/17 12:14:51;;;;;;;1.63;1.50;;;18.40;99.90;;;;;;5022819;28;20742;-71
2023/10/17 12:17:20;;;;;;;2.00;1.90;;;18.20;99.90;;;;;;5019419;28;20278;-69
2023/10/17 12:19:47;;;;;;;1.95;1.63;;;18.10;99.90;;;;;;5023878;28;20695;-70
2023/10/17 12:22:14;;;;;;;1.83;1.70;;;18.30;99.90;;;;;;5019306;28;20208;-70
2023/10/17 12:24:42;;;;;;;4.05;1.67;;;18.40;99.90;;;;;;5022481;28;20199;-69
2023/10/17 12:27:12;;;;;;;1.80;1.70;;;18.30;99.90;;;;;;5021881;28;20747;-71
2023/10/17 12:29:41;;;;;;;1.90;1.80;;;18.30;99.90;;;;;;5017210;28;20238;-70
2023/10/17 12:32:10;;;;;;;3.33;1.80;;;18.30;99.90;;;;;;5018670;28;20208;-70
2023/10/17 12:34:39;;;;;;;2.22;2.03;;;18.40;99.90;;;;;;5016436;28;20772;-71
2023/10/17 12:37:10;;;;;;;1.88;1.77;;;18.40;99.90;;;;;;5019536;28;20347;-71
2023/10/17 12:39:38;;;;;;;3.30;1.80;;;18.20;99.90;;;;;;5024796;28;20199;-71
2023/10/17 12:42:05;;;;;;;1.67;1.58;;;17.80;99.90;;;;;;5022453;28;20216;-70
2023/10/17 12:44:32;;;;;;;3.42;1.80;;;17.40;99.90;;;;;;5014614;28;20701;-70
2023/10/17 12:47:01;;;;;;;2.55;1.70;;;17.40;99.90;;;;;;5022384;28;20195;-70
2023/10/17 12:49:28;;;;;;;2.08;1.95;;;17.40;99.90;;;;;;5023874;28;20230;-71
2023/10/17 12:51:56;;;;;;;3.00;1.48;;;17.40;99.90;;;;;;5021350;28;21119;-71
2023/10/17 12:54:26;;;;;;;2.55;2.35;;;17.70;99.90;;;;;;5018691;28;20240;-71
2023/10/17 12:56:53;;;;;;;2.30;2.10;;;17.70;99.90;;;;;;5019662;28;20203;-70
2023/10/17 12:59:20;;;;;;;2.67;2.00;;;17.60;99.90;;;;;;5022448;28;20310;-69
2023/10/17 13:01:48;;;;;;;2.83;2.00;;;17.60;99.90;;;;;;5018061;28;20868;-70
2023/10/17 13:04:19;;;;;;;1.80;1.70;;;17.70;99.90;;;;;;5020653;28;20207;-70
2023/10/17 13:06:48;;;;;;;2.20;2.00;;;17.50;99.90;;;;;;5021026;28;20233;-69
2023/10/17 13:09:18;;;;;;;2.30;2.00;;;17.50;99.90;;;;;;5017357;28;20229;-69
2023/10/17 13:11:45;;;;;;;2.88;2.40;;;17.50;99.90;;;;;;5027921;28;20196;-69
2023/10/17 13:14:13;;;;;;;3.00;2.42;;;17.50;99.90;;;;;;5020142;28;20207;-70
2023/10/17 13:16:40;;;;;;;4.15;2.60;;;17.60;99.90;;;;;;5019604;28;20210;-69
2023/10/17 13:19:16;;;;;;;2.42;2.22;;;17.60;99.90;;;;;;5021935;28;20431;-70
2023/10/17 13:21:45;;;;;;;2.25;2.05;;;17.50;99.90;;;;;;5018054;28;20230;-68
2023/10/17 13:24:13;;;;;;;3.33;2.05;;;17.40;99.90;;;;;;5020376;28;20710;-69
2023/10/17 13:26:40;;;;;;;2.42;1.80;;;17.50;99.90;;;;;;5018559;28;20294;-70
2023/10/17 13:29:08;;;;;;;2.08;1.90;;;17.50;99.90;;;;;;5019613;28;20242;-69
2023/10/17 13:31:35;;;;;;;3.42;2.22;;;17.40;99.90;;;;;;5021515;28;20199;-70
2023/10/17 13:34:04;;;;;;;2.42;2.22;;;17.40;99.90;;;;;;5017877;28;21461;-70
2023/10/17 13:36:31;;;;;;;2.28;2.08;;;17.10;99.90;;;;;;5020996;28;20238;-70
2023/10/17 13:38:59;;;;;;;2.25;2.05;;;17.00;99.90;;;;;;5015750;28;20282;-69
2023/10/17 13:41:26;;;;;;;3.08;2.35;;;16.90;99.90;;;;;;5017340;28;20243;-70
2023/10/17 13:43:53;;;;;;;2.80;2.22;;;16.80;99.90;;;;;;5021054;28;20226;-70
2023/10/17 13:46:21;;;;;;;3.03;2.00;;;16.90;99.90;;;;;;5016774;28;20344;-69
2023/10/17 13:48:49;;;;;;;1.70;1.60;;;17.20;99.90;;;;;;5017920;28;20584;-70
2023/10/17 13:51:20;;;;;;;2.17;1.98;;;17.50;99.90;;;;;;5021948;28;20910;-71
2023/10/17 13:53:48;;;;;;;1.90;1.80;;;18.00;99.90;;;;;;5019266;28;20258;-71
2023/10/17 13:56:18;;;;;;;3.22;2.13;;;18.40;99.90;;;;;;5020827;28;20258;-70
2023/10/17 13:58:46;;;;;;;2.17;1.92;;;18.60;99.90;;;;;;5016589;28;20258;-69
2023/10/17 14:01:31;;;;;;;1.70;1.60;;;18.70;99.90;;;;;;5017945;28;20319;-70
2023/10/17 14:04:00;;;;;;;1.80;1.65;;;18.90;99.90;;;;;;5015850;28;20299;-69
2023/10/17 14:06:28;;;;;;;2.28;1.92;;;19.10;99.90;;;;;;5020715;28;21158;-69
2023/10/17 14:08:55;;;;;;;3.72;1.90;;;19.10;99.90;;;;;;5019500;28;20233;-68
2023/10/17 14:11:24;;;;;;;3.03;1.80;;;19.10;99.90;;;;;;5018807;28;20195;-69
2023/10/17 14:13:51;;;;;;;3.10;1.90;;;18.80;99.90;;;;;;5019844;28;20207;-69
2023/10/17 14:16:22;;;;;;;2.28;1.80;;;18.60;99.90;;;;;;5016216;28;20257;-68
2023/10/17 14:19:02;;;;;;;3.50;2.03;;;18.40;99.90;;;;;;5021261;28;20227;-69
2023/10/17 14:21:36;;;;;;;2.00;1.80;;;18.30;99.90;;;;;;5016777;28;20322;-68
2023/10/17 14:24:07;;;;;;;2.35;1.80;;;18.10;99.90;;;;;;5021184;28;20832;-70
2023/10/17 14:26:37;;;;;;;1.90;1.70;;;18.00;99.90;;;;;;5021537;28;20317;-70
2023/10/17 14:29:03;;;;;;;1.77;1.60;;;17.90;99.90;;;;;;5018474;28;20221;-69
2023/10/17 14:31:31;;;;;;;1.60;1.50;;;17.80;99.90;;;;;;5016457;28;20215;-67
2023/10/17 14:33:59;;;;;;;1.58;1.48;;;17.80;99.90;;;;;;5018569;28;20207;-70
2023/10/17 14:36:27;;;;;;;1.80;1.42;;;17.80;99.90;;;;;;5014208;28;20208;-70
2023/10/17 14:38:54;;;;;;;1.90;1.50;;;17.80;99.90;;;;;;5022717;28;20887;-70
2023/10/17 14:41:22;;;;;;;1.77;1.27;;;17.80;99.90;;;;;;5037231;28;20216;-68
2023/10/17 14:43:50;;;;;;;1.45;1.35;;;17.90;99.90;;;;;;5023775;28;20198;-69
2023/10/17 14:46:18;;;;;;;3.05;1.15;;;17.90;99.90;;;;;;5020476;28;20705;-70
2023/10/17 14:48:45;;;;;;;1.58;1.48;;;17.90;99.90;;;;;;5022629;28;20223;-68
2023/10/17 14:51:13;;;;;;;1.52;1.42;;;17.90;99.90;;;;;;5023140;28;20198;-69